sensor_id;sensor_type;location;lat;lon;timestamp;P1;durP1;ratioP1;P2;durP2;ratioP2
32451;SDS011;45528;52.102;5.242;2023-08-21T00:02:10;9.31;;;1.3;;
32451;SDS011;45528;52.102;5.242;2023-08-21T00:03:47;4.2;;;1.4;;
32451;SDS011;45528;52.102;5.242;2023-08-21T00:05:24;2.5;;;1.2;;
32451;SDS011;45528;52.102;5.242;2023-08-21T00:08:38;5.9;;;1.3;;
32451;SDS011;45528;52.102;5.242;2023-08-21T00:10:15;3.2;;;1.2;;
32451;SDS011;45528;52.102;5.242;2023-08-21T00:11:53;5.2;;;1.11;;
32451;SDS011;45528;52.102;5.242;2023-08-21T00:15:07;3.8;;;1.4;;
32451;SDS011;45528;52.102;5.242;2023-08-21T00:16:45;5.11;;;1.3;;
32451;SDS011;45528;52.102;5.242;2023-08-21T00:18:22;3.0;;;1.5;;
32451;SDS011;45528;52.102;5.242;2023-08-21T00:19:59;2.5;;;1.3;;
32451;SDS011;45528;52.102;5.242;2023-08-21T00:23:13;6.4;;;1.6;;
32451;SDS011;45528;52.102;5.242;2023-08-21T00:24:50;2.8;;;1.3;;
32451;SDS011;45528;52.102;5.242;2023-08-21T00:26:28;4.1;;;1.3;;
32451;SDS011;45528;52.102;5.242;2023-08-21T00:29:42;5.5;;;1.3;;
32451;SDS011;45528;52.102;5.242;2023-08-21T00:31:19;6.1;;;1.5;;
32451;SDS011;45528;52.102;5.242;2023-08-21T00:32:56;3.3;;;1.0;;
32451;SDS011;45528;52.102;5.242;2023-08-21T00:34:32;5.4;;;1.3;;
32451;SDS011;45528;52.102;5.242;2023-08-21T00:37:46;2.7;;;1.11;;
32451;SDS011;45528;52.102;5.242;2023-08-21T00:39:22;2.8;;;1.11;;
32451;SDS011;45528;52.102;5.242;2023-08-21T00:40:59;3.5;;;1.2;;
32451;SDS011;45528;52.102;5.242;2023-08-21T00:44:12;1.8;;;1.11;;
32451;SDS011;45528;52.102;5.242;2023-08-21T00:45:50;3.0;;;1.3;;
32451;SDS011;45528;52.102;5.242;2023-08-21T00:47:27;3.4;;;1.11;;
32451;SDS011;45528;52.102;5.242;2023-08-21T00:50:40;3.7;;;1.11;;
32451;SDS011;45528;52.102;5.242;2023-08-21T00:52:18;7.4;;;1.6;;
32451;SDS011;45528;52.102;5.242;2023-08-21T00:53:55;4.8;;;1.4;;
32451;SDS011;45528;52.102;5.242;2023-08-21T00:55:32;4.5;;;1.2;;
32451;SDS011;45528;52.102;5.242;2023-08-21T00:58:48;6.6;;;1.3;;
32451;SDS011;45528;52.102;5.242;2023-08-21T01:00:25;3.5;;;1.2;;
32451;SDS011;45528;52.102;5.242;2023-08-21T01:02:04;4.2;;;1.11;;
32451;SDS011;45528;52.102;5.242;2023-08-21T01:05:17;3.4;;;1.11;;
32451;SDS011;45528;52.102;5.242;2023-08-21T01:06:54;3.7;;;1.2;;
32451;SDS011;45528;52.102;5.242;2023-08-21T01:08:35;3.0;;;1.2;;
32451;SDS011;45528;52.102;5.242;2023-08-21T01:10:29;4.41;;;1.4;;
32451;SDS011;45528;52.102;5.242;2023-08-21T01:12:19;6.9;;;1.5;;
32451;SDS011;45528;52.102;5.242;2023-08-21T01:15:59;4.8;;;1.0;;
32451;SDS011;45528;52.102;5.242;2023-08-21T01:17:37;6.4;;;1.3;;
32451;SDS011;45528;52.102;5.242;2023-08-21T01:19:19;1.9;;;1.0;;
32451;SDS011;45528;52.102;5.242;2023-08-21T01:21:06;4.8;;;1.2;;
32451;SDS011;45528;52.102;5.242;2023-08-21T01:22:43;2.31;;;1.2;;
32451;SDS011;45528;52.102;5.242;2023-08-21T01:25:56;2.8;;;1.2;;
32451;SDS011;45528;52.102;5.242;2023-08-21T01:27:34;3.3;;;1.2;;
32451;SDS011;45528;52.102;5.242;2023-08-21T01:29:11;5.3;;;1.5;;
32451;SDS011;45528;52.102;5.242;2023-08-21T01:32:32;5.9;;;1.3;;
32451;SDS011;45528;52.102;5.242;2023-08-21T01:34:27;3.5;;;1.2;;
32451;SDS011;45528;52.102;5.242;2023-08-21T01:36:05;4.41;;;1.11;;
32451;SDS011;45528;52.102;5.242;2023-08-21T01:37:43;2.7;;;1.2;;
32451;SDS011;45528;52.102;5.242;2023-08-21T01:40:58;4.3;;;1.11;;
32451;SDS011;45528;52.102;5.242;2023-08-21T01:42:35;2.0;;;1.2;;
32451;SDS011;45528;52.102;5.242;2023-08-21T01:44:12;3.3;;;1.11;;
32451;SDS011;45528;52.102;5.242;2023-08-21T01:45:50;3.9;;;1.4;;
32451;SDS011;45528;52.102;5.242;2023-08-21T01:49:04;3.2;;;1.4;;
32451;SDS011;45528;52.102;5.242;2023-08-21T01:50:40;4.0;;;1.0;;
32451;SDS011;45528;52.102;5.242;2023-08-21T01:52:17;2.7;;;1.11;;
32451;SDS011;45528;52.102;5.242;2023-08-21T01:55:30;2.4;;;1.0;;
32451;SDS011;45528;52.102;5.242;2023-08-21T01:57:08;1.2;;;1.0;;
32451;SDS011;45528;52.102;5.242;2023-08-21T01:58:45;4.7;;;1.2;;
32451;SDS011;45528;52.102;5.242;2023-08-21T02:00:21;4.5;;;1.2;;
32451;SDS011;45528;52.102;5.242;2023-08-21T02:03:35;4.1;;;1.0;;
32451;SDS011;45528;52.102;5.242;2023-08-21T02:05:11;2.6;;;1.11;;
32451;SDS011;45528;52.102;5.242;2023-08-21T02:06:48;4.41;;;1.2;;
32451;SDS011;45528;52.102;5.242;2023-08-21T02:10:08;2.8;;;1.3;;
32451;SDS011;45528;52.102;5.242;2023-08-21T02:11:46;4.1;;;1.3;;
32451;SDS011;45528;52.102;5.242;2023-08-21T02:13:23;2.1;;;1.11;;
32451;SDS011;45528;52.102;5.242;2023-08-21T02:15:00;3.0;;;1.0;;
32451;SDS011;45528;52.102;5.242;2023-08-21T02:18:13;5.2;;;1.2;;
32451;SDS011;45528;52.102;5.242;2023-08-21T02:19:50;3.7;;;1.11;;
32451;SDS011;45528;52.102;5.242;2023-08-21T02:21:26;2.0;;;1.2;;
32451;SDS011;45528;52.102;5.242;2023-08-21T02:24:41;3.1;;;1.11;;
32451;SDS011;45528;52.102;5.242;2023-08-21T02:26:17;2.5;;;1.2;;
32451;SDS011;45528;52.102;5.242;2023-08-21T02:27:54;3.4;;;1.0;;
32451;SDS011;45528;52.102;5.242;2023-08-21T02:31:08;4.91;;;1.2;;
32451;SDS011;45528;52.102;5.242;2023-08-21T02:32:45;2.6;;;1.2;;
32451;SDS011;45528;52.102;5.242;2023-08-21T02:34:22;2.8;;;1.3;;
32451;SDS011;45528;52.102;5.242;2023-08-21T02:35:59;2.8;;;1.0;;
32451;SDS011;45528;52.102;5.242;2023-08-21T02:39:13;3.2;;;1.11;;
32451;SDS011;45528;52.102;5.242;2023-08-21T02:40:49;2.8;;;1.0;;
32451;SDS011;45528;52.102;5.242;2023-08-21T02:42:26;3.9;;;1.2;;
32451;SDS011;45528;52.102;5.242;2023-08-21T02:45:41;3.9;;;1.3;;
32451;SDS011;45528;52.102;5.242;2023-08-21T02:47:17;2.9;;;1.2;;
32451;SDS011;45528;52.102;5.242;2023-08-21T02:48:54;4.5;;;1.2;;
32451;SDS011;45528;52.102;5.242;2023-08-21T02:50:31;2.9;;;1.0;;
32451;SDS011;45528;52.102;5.242;2023-08-21T02:53:45;2.4;;;1.11;;
32451;SDS011;45528;52.102;5.242;2023-08-21T02:55:21;3.4;;;1.3;;
32451;SDS011;45528;52.102;5.242;2023-08-21T02:56:59;5.2;;;1.4;;
32451;SDS011;45528;52.102;5.242;2023-08-21T03:00:12;2.0;;;1.11;;
32451;SDS011;45528;52.102;5.242;2023-08-21T03:01:49;3.8;;;1.11;;
32451;SDS011;45528;52.102;5.242;2023-08-21T03:03:27;3.1;;;1.2;;
32451;SDS011;45528;52.102;5.242;2023-08-21T03:06:41;2.8;;;1.2;;
32451;SDS011;45528;52.102;5.242;2023-08-21T03:08:17;3.1;;;1.11;;
32451;SDS011;45528;52.102;5.242;2023-08-21T03:09:54;3.7;;;1.0;;
32451;SDS011;45528;52.102;5.242;2023-08-21T03:11:31;2.4;;;1.0;;
32451;SDS011;45528;52.102;5.242;2023-08-21T03:14:45;2.21;;;0.9;;
32451;SDS011;45528;52.102;5.242;2023-08-21T03:16:22;3.5;;;1.0;;
32451;SDS011;45528;52.102;5.242;2023-08-21T03:17:59;4.7;;;1.2;;
32451;SDS011;45528;52.102;5.242;2023-08-21T03:21:13;3.1;;;1.2;;
32451;SDS011;45528;52.102;5.242;2023-08-21T03:22:50;5.4;;;1.4;;
32451;SDS011;45528;52.102;5.242;2023-08-21T03:24:27;4.41;;;1.11;;
32451;SDS011;45528;52.102;5.242;2023-08-21T03:26:04;2.21;;;0.8;;
32451;SDS011;45528;52.102;5.242;2023-08-21T03:29:18;4.91;;;1.2;;
32451;SDS011;45528;52.102;5.242;2023-08-21T03:30:55;2.0;;;1.2;;
32451;SDS011;45528;52.102;5.242;2023-08-21T03:32:31;3.1;;;1.2;;
32451;SDS011;45528;52.102;5.242;2023-08-21T03:35:45;4.7;;;1.2;;
32451;SDS011;45528;52.102;5.242;2023-08-21T03:37:22;3.3;;;0.9;;
32451;SDS011;45528;52.102;5.242;2023-08-21T03:39:00;4.1;;;1.4;;
32451;SDS011;45528;52.102;5.242;2023-08-21T03:42:15;3.2;;;1.3;;
32451;SDS011;45528;52.102;5.242;2023-08-21T03:43:53;2.0;;;1.11;;
32451;SDS011;45528;52.102;5.242;2023-08-21T03:45:29;3.2;;;1.0;;
32451;SDS011;45528;52.102;5.242;2023-08-21T03:47:07;3.6;;;1.0;;
32451;SDS011;45528;52.102;5.242;2023-08-21T03:50:21;2.9;;;1.11;;
32451;SDS011;45528;52.102;5.242;2023-08-21T03:51:58;4.41;;;1.3;;
32451;SDS011;45528;52.102;5.242;2023-08-21T03:53:35;1.8;;;0.9;;
32451;SDS011;45528;52.102;5.242;2023-08-21T03:56:50;2.4;;;1.0;;
32451;SDS011;45528;52.102;5.242;2023-08-21T03:58:27;4.61;;;1.3;;
32451;SDS011;45528;52.102;5.242;2023-08-21T04:00:04;2.7;;;1.11;;
32451;SDS011;45528;52.102;5.242;2023-08-21T04:01:43;4.61;;;1.2;;
32451;SDS011;45528;52.102;5.242;2023-08-21T04:04:57;3.5;;;1.3;;
32451;SDS011;45528;52.102;5.242;2023-08-21T04:06:35;2.9;;;1.2;;
32451;SDS011;45528;52.102;5.242;2023-08-21T04:08:12;4.0;;;1.2;;
32451;SDS011;45528;52.102;5.242;2023-08-21T04:11:27;3.6;;;1.2;;
32451;SDS011;45528;52.102;5.242;2023-08-21T04:13:04;3.9;;;1.3;;
32451;SDS011;45528;52.102;5.242;2023-08-21T04:14:41;2.8;;;1.11;;
32451;SDS011;45528;52.102;5.242;2023-08-21T04:16:18;2.5;;;1.2;;
32451;SDS011;45528;52.102;5.242;2023-08-21T04:19:31;2.21;;;0.9;;
32451;SDS011;45528;52.102;5.242;2023-08-21T04:21:09;3.2;;;1.11;;
32451;SDS011;45528;52.102;5.242;2023-08-21T04:22:46;2.6;;;1.11;;
32451;SDS011;45528;52.102;5.242;2023-08-21T04:26:00;1.4;;;1.0;;
32451;SDS011;45528;52.102;5.242;2023-08-21T04:27:37;3.2;;;1.0;;
32451;SDS011;45528;52.102;5.242;2023-08-21T04:29:14;3.3;;;1.0;;
32451;SDS011;45528;52.102;5.242;2023-08-21T04:32:28;6.1;;;1.3;;
32451;SDS011;45528;52.102;5.242;2023-08-21T04:34:05;4.61;;;1.3;;
32451;SDS011;45528;52.102;5.242;2023-08-21T04:35:42;4.61;;;1.3;;
32451;SDS011;45528;52.102;5.242;2023-08-21T04:37:19;3.2;;;1.2;;
32451;SDS011;45528;52.102;5.242;2023-08-21T04:40:34;3.6;;;1.2;;
32451;SDS011;45528;52.102;5.242;2023-08-21T04:42:11;3.6;;;1.2;;
32451;SDS011;45528;52.102;5.242;2023-08-21T04:43:48;3.2;;;1.3;;
32451;SDS011;45528;52.102;5.242;2023-08-21T04:47:18;3.6;;;1.2;;
32451;SDS011;45528;52.102;5.242;2023-08-21T04:48:57;2.21;;;1.0;;
32451;SDS011;45528;52.102;5.242;2023-08-21T04:50:33;5.8;;;1.2;;
32451;SDS011;45528;52.102;5.242;2023-08-21T04:52:11;2.7;;;1.0;;
32451;SDS011;45528;52.102;5.242;2023-08-21T04:55:25;2.4;;;1.3;;
32451;SDS011;45528;52.102;5.242;2023-08-21T04:57:01;4.3;;;1.2;;
32451;SDS011;45528;52.102;5.242;2023-08-21T04:58:37;3.2;;;0.9;;
32451;SDS011;45528;52.102;5.242;2023-08-21T05:00:15;3.6;;;1.11;;
32451;SDS011;45528;52.102;5.242;2023-08-21T05:03:30;4.1;;;1.2;;
32451;SDS011;45528;52.102;5.242;2023-08-21T05:05:07;3.2;;;1.3;;
32451;SDS011;45528;52.102;5.242;2023-08-21T05:06:44;3.7;;;1.2;;
32451;SDS011;45528;52.102;5.242;2023-08-21T05:10:01;2.9;;;1.3;;
32451;SDS011;45528;52.102;5.242;2023-08-21T05:11:39;2.8;;;1.3;;
32451;SDS011;45528;52.102;5.242;2023-08-21T05:13:17;4.91;;;1.5;;
32451;SDS011;45528;52.102;5.242;2023-08-21T05:14:54;1.9;;;1.11;;
32451;SDS011;45528;52.102;5.242;2023-08-21T05:18:08;3.1;;;1.2;;
32451;SDS011;45528;52.102;5.242;2023-08-21T05:19:44;4.1;;;1.2;;
32451;SDS011;45528;52.102;5.242;2023-08-21T05:21:22;4.7;;;1.3;;
32451;SDS011;45528;52.102;5.242;2023-08-21T05:24:37;4.8;;;1.3;;
32451;SDS011;45528;52.102;5.242;2023-08-21T05:26:13;5.2;;;1.3;;
32451;SDS011;45528;52.102;5.242;2023-08-21T05:27:51;5.6;;;1.6;;
32451;SDS011;45528;52.102;5.242;2023-08-21T05:31:05;2.31;;;1.3;;
32451;SDS011;45528;52.102;5.242;2023-08-21T05:32:41;2.5;;;1.2;;
32451;SDS011;45528;52.102;5.242;2023-08-21T05:34:18;3.0;;;1.2;;
32451;SDS011;45528;52.102;5.242;2023-08-21T05:35:56;4.41;;;1.3;;
32451;SDS011;45528;52.102;5.242;2023-08-21T05:39:10;3.5;;;1.3;;
32451;SDS011;45528;52.102;5.242;2023-08-21T05:40:48;3.7;;;1.4;;
32451;SDS011;45528;52.102;5.242;2023-08-21T05:42:25;2.9;;;1.3;;
32451;SDS011;45528;52.102;5.242;2023-08-21T05:45:39;3.7;;;1.2;;
32451;SDS011;45528;52.102;5.242;2023-08-21T05:47:17;3.7;;;1.2;;
32451;SDS011;45528;52.102;5.242;2023-08-21T05:48:53;3.4;;;1.5;;
32451;SDS011;45528;52.102;5.242;2023-08-21T05:50:30;3.5;;;1.5;;
32451;SDS011;45528;52.102;5.242;2023-08-21T05:53:45;2.8;;;1.2;;
32451;SDS011;45528;52.102;5.242;2023-08-21T05:55:22;1.9;;;1.2;;
32451;SDS011;45528;52.102;5.242;2023-08-21T05:57:01;2.8;;;1.2;;
32451;SDS011;45528;52.102;5.242;2023-08-21T06:00:16;8.5;;;1.8;;
32451;SDS011;45528;52.102;5.242;2023-08-21T06:01:53;3.2;;;1.2;;
32451;SDS011;45528;52.102;5.242;2023-08-21T06:03:31;3.0;;;1.3;;
32451;SDS011;45528;52.102;5.242;2023-08-21T06:05:08;6.9;;;1.4;;
32451;SDS011;45528;52.102;5.242;2023-08-21T06:08:22;3.4;;;1.2;;
32451;SDS011;45528;52.102;5.242;2023-08-21T06:09:59;3.6;;;1.5;;
32451;SDS011;45528;52.102;5.242;2023-08-21T06:11:37;3.9;;;1.7;;
32451;SDS011;45528;52.102;5.242;2023-08-21T06:14:51;2.5;;;1.3;;
32451;SDS011;45528;52.102;5.242;2023-08-21T06:16:29;3.2;;;1.5;;
32451;SDS011;45528;52.102;5.242;2023-08-21T06:18:06;4.8;;;1.5;;
32451;SDS011;45528;52.102;5.242;2023-08-21T06:21:21;7.3;;;1.9;;
32451;SDS011;45528;52.102;5.242;2023-08-21T06:22:58;3.1;;;1.4;;
32451;SDS011;45528;52.102;5.242;2023-08-21T06:24:35;1.6;;;1.11;;
32451;SDS011;45528;52.102;5.242;2023-08-21T06:26:12;3.5;;;1.2;;
32451;SDS011;45528;52.102;5.242;2023-08-21T06:29:26;6.7;;;1.7;;
32451;SDS011;45528;52.102;5.242;2023-08-21T06:31:02;3.2;;;1.5;;
32451;SDS011;45528;52.102;5.242;2023-08-21T06:32:40;5.0;;;1.4;;
32451;SDS011;45528;52.102;5.242;2023-08-21T06:35:54;8.6;;;1.5;;
32451;SDS011;45528;52.102;5.242;2023-08-21T06:37:31;5.11;;;1.7;;
32451;SDS011;45528;52.102;5.242;2023-08-21T06:39:08;3.0;;;1.11;;
32451;SDS011;45528;52.102;5.242;2023-08-21T06:40:45;5.3;;;2.0;;
32451;SDS011;45528;52.102;5.242;2023-08-21T06:43:59;6.8;;;1.7;;
32451;SDS011;45528;52.102;5.242;2023-08-21T06:45:36;4.41;;;1.3;;
32451;SDS011;45528;52.102;5.242;2023-08-21T06:47:14;5.4;;;1.4;;
32451;SDS011;45528;52.102;5.242;2023-08-21T06:50:27;5.6;;;1.6;;
32451;SDS011;45528;52.102;5.242;2023-08-21T06:52:04;5.8;;;1.6;;
32451;SDS011;45528;52.102;5.242;2023-08-21T06:53:42;3.0;;;1.3;;
32451;SDS011;45528;52.102;5.242;2023-08-21T06:55:19;3.3;;;1.3;;
32451;SDS011;45528;52.102;5.242;2023-08-21T06:58:34;4.61;;;1.6;;
32451;SDS011;45528;52.102;5.242;2023-08-21T07:00:11;2.6;;;1.3;;
32451;SDS011;45528;52.102;5.242;2023-08-21T07:01:48;4.41;;;1.4;;
32451;SDS011;45528;52.102;5.242;2023-08-21T07:05:03;6.3;;;1.5;;
32451;SDS011;45528;52.102;5.242;2023-08-21T07:06:40;4.7;;;1.4;;
32451;SDS011;45528;52.102;5.242;2023-08-21T07:08:17;3.3;;;1.2;;
32451;SDS011;45528;52.102;5.242;2023-08-21T07:11:31;5.6;;;1.3;;
32451;SDS011;45528;52.102;5.242;2023-08-21T07:13:08;2.7;;;1.2;;
32451;SDS011;45528;52.102;5.242;2023-08-21T07:14:45;4.5;;;1.3;;
32451;SDS011;45528;52.102;5.242;2023-08-21T07:16:22;6.0;;;1.4;;
32451;SDS011;45528;52.102;5.242;2023-08-21T07:19:37;6.9;;;1.2;;
32451;SDS011;45528;52.102;5.242;2023-08-21T07:21:14;3.4;;;1.11;;
32451;SDS011;45528;52.102;5.242;2023-08-21T07:22:51;3.0;;;1.2;;
32451;SDS011;45528;52.102;5.242;2023-08-21T07:26:04;3.1;;;1.5;;
32451;SDS011;45528;52.102;5.242;2023-08-21T07:27:41;3.0;;;1.11;;
32451;SDS011;45528;52.102;5.242;2023-08-21T07:29:19;5.6;;;1.2;;
32451;SDS011;45528;52.102;5.242;2023-08-21T07:30:56;4.8;;;1.0;;
32451;SDS011;45528;52.102;5.242;2023-08-21T07:34:11;4.1;;;1.2;;
32451;SDS011;45528;52.102;5.242;2023-08-21T07:35:56;3.5;;;1.2;;
32451;SDS011;45528;52.102;5.242;2023-08-21T07:37:33;2.7;;;0.9;;
32451;SDS011;45528;52.102;5.242;2023-08-21T07:40:47;2.8;;;1.11;;
32451;SDS011;45528;52.102;5.242;2023-08-21T07:42:24;4.7;;;1.2;;
32451;SDS011;45528;52.102;5.242;2023-08-21T07:44:01;4.7;;;1.2;;
32451;SDS011;45528;52.102;5.242;2023-08-21T07:45:38;4.5;;;1.3;;
32451;SDS011;45528;52.102;5.242;2023-08-21T07:48:52;6.1;;;1.2;;
32451;SDS011;45528;52.102;5.242;2023-08-21T07:50:30;2.31;;;1.0;;
32451;SDS011;45528;52.102;5.242;2023-08-21T07:52:07;5.11;;;1.0;;
32451;SDS011;45528;52.102;5.242;2023-08-21T07:55:21;4.91;;;1.11;;
32451;SDS011;45528;52.102;5.242;2023-08-21T07:56:59;3.2;;;0.8;;
32451;SDS011;45528;52.102;5.242;2023-08-21T07:58:36;4.41;;;1.11;;
32451;SDS011;45528;52.102;5.242;2023-08-21T08:00:13;3.2;;;1.0;;
32451;SDS011;45528;52.102;5.242;2023-08-21T08:03:28;5.6;;;1.0;;
32451;SDS011;45528;52.102;5.242;2023-08-21T08:05:06;1.8;;;0.9;;
32451;SDS011;45528;52.102;5.242;2023-08-21T08:06:43;7.2;;;1.4;;
32451;SDS011;45528;52.102;5.242;2023-08-21T08:10:00;3.5;;;0.8;;
32451;SDS011;45528;52.102;5.242;2023-08-21T08:11:38;3.5;;;1.0;;
32451;SDS011;45528;52.102;5.242;2023-08-21T08:13:15;4.7;;;0.8;;
32451;SDS011;45528;52.102;5.242;2023-08-21T08:14:53;4.0;;;0.9;;
32451;SDS011;45528;52.102;5.242;2023-08-21T08:18:10;2.0;;;0.8;;
32451;SDS011;45528;52.102;5.242;2023-08-21T08:19:48;2.9;;;0.9;;
32451;SDS011;45528;52.102;5.242;2023-08-21T08:21:25;5.4;;;1.0;;
32451;SDS011;45528;52.102;5.242;2023-08-21T08:24:39;5.7;;;1.2;;
32451;SDS011;45528;52.102;5.242;2023-08-21T08:26:16;5.4;;;1.11;;
32451;SDS011;45528;52.102;5.242;2023-08-21T08:27:54;5.6;;;1.11;;
32451;SDS011;45528;52.102;5.242;2023-08-21T08:29:31;6.6;;;1.0;;
32451;SDS011;45528;52.102;5.242;2023-08-21T08:32:51;6.6;;;1.0;;
32451;SDS011;45528;52.102;5.242;2023-08-21T08:34:28;3.3;;;1.3;;
32451;SDS011;45528;52.102;5.242;2023-08-21T08:36:05;3.0;;;1.11;;
32451;SDS011;45528;52.102;5.242;2023-08-21T08:39:21;6.7;;;1.11;;
32451;SDS011;45528;52.102;5.242;2023-08-21T08:40:58;5.0;;;1.2;;
32451;SDS011;45528;52.102;5.242;2023-08-21T08:42:38;4.61;;;1.11;;
32451;SDS011;45528;52.102;5.242;2023-08-21T08:44:15;6.7;;;1.2;;
32451;SDS011;45528;52.102;5.242;2023-08-21T08:47:33;3.4;;;1.0;;
32451;SDS011;45528;52.102;5.242;2023-08-21T08:49:11;5.9;;;1.11;;
32451;SDS011;45528;52.102;5.242;2023-08-21T08:50:49;2.21;;;0.9;;
32451;SDS011;45528;52.102;5.242;2023-08-21T08:52:29;3.5;;;0.9;;
32451;SDS011;45528;52.102;5.242;2023-08-21T08:55:46;3.7;;;0.9;;
32451;SDS011;45528;52.102;5.242;2023-08-21T08:57:24;5.2;;;1.2;;
32451;SDS011;45528;52.102;5.242;2023-08-21T08:59:02;7.8;;;1.3;;
32451;SDS011;45528;52.102;5.242;2023-08-21T09:02:17;4.5;;;1.3;;
32451;SDS011;45528;52.102;5.242;2023-08-21T09:03:54;4.41;;;1.11;;
32451;SDS011;45528;52.102;5.242;2023-08-21T09:05:32;7.9;;;1.4;;
32451;SDS011;45528;52.102;5.242;2023-08-21T09:07:10;7.7;;;1.4;;
32451;SDS011;45528;52.102;5.242;2023-08-21T09:10:33;3.4;;;1.2;;
32451;SDS011;45528;52.102;5.242;2023-08-21T09:12:12;8.2;;;1.6;;
32451;SDS011;45528;52.102;5.242;2023-08-21T09:13:51;5.4;;;1.5;;
32451;SDS011;45528;52.102;5.242;2023-08-21T09:15:29;7.4;;;1.4;;
32451;SDS011;45528;52.102;5.242;2023-08-21T09:18:46;2.6;;;1.11;;
32451;SDS011;45528;52.102;5.242;2023-08-21T09:20:24;5.8;;;1.3;;
32451;SDS011;45528;52.102;5.242;2023-08-21T09:22:07;6.7;;;1.3;;
32451;SDS011;45528;52.102;5.242;2023-08-21T09:25:26;5.3;;;1.5;;
32451;SDS011;45528;52.102;5.242;2023-08-21T09:27:03;3.0;;;1.11;;
32451;SDS011;45528;52.102;5.242;2023-08-21T09:28:50;7.7;;;1.5;;
32451;SDS011;45528;52.102;5.242;2023-08-21T09:30:28;4.91;;;1.4;;
32451;SDS011;45528;52.102;5.242;2023-08-21T09:33:42;3.6;;;1.2;;
32451;SDS011;45528;52.102;5.242;2023-08-21T09:35:19;6.1;;;1.3;;
32451;SDS011;45528;52.102;5.242;2023-08-21T09:36:57;4.1;;;1.3;;
32451;SDS011;45528;52.102;5.242;2023-08-21T09:38:35;4.5;;;1.3;;
32451;SDS011;45528;52.102;5.242;2023-08-21T09:41:55;4.1;;;1.3;;
32451;SDS011;45528;52.102;5.242;2023-08-21T09:43:32;5.5;;;1.3;;
32451;SDS011;45528;52.102;5.242;2023-08-21T09:45:19;3.9;;;1.3;;
32451;SDS011;45528;52.102;5.242;2023-08-21T09:46:57;5.0;;;1.2;;
32451;SDS011;45528;52.102;5.242;2023-08-21T09:50:12;3.7;;;1.4;;
32451;SDS011;45528;52.102;5.242;2023-08-21T09:51:49;6.0;;;1.3;;
32451;SDS011;45528;52.102;5.242;2023-08-21T09:53:28;3.7;;;1.5;;
32451;SDS011;45528;52.102;5.242;2023-08-21T09:56:44;4.3;;;1.11;;
32451;SDS011;45528;52.102;5.242;2023-08-21T09:58:23;5.8;;;1.4;;
32451;SDS011;45528;52.102;5.242;2023-08-21T10:00:01;5.0;;;1.3;;
32451;SDS011;45528;52.102;5.242;2023-08-21T10:01:40;5.11;;;1.4;;
32451;SDS011;45528;52.102;5.242;2023-08-21T10:04:57;4.0;;;1.2;;
32451;SDS011;45528;52.102;5.242;2023-08-21T10:06:35;4.8;;;1.3;;
32451;SDS011;45528;52.102;5.242;2023-08-21T10:08:15;5.9;;;1.4;;
32451;SDS011;45528;52.102;5.242;2023-08-21T10:09:54;4.2;;;1.4;;
32451;SDS011;45528;52.102;5.242;2023-08-21T10:13:10;4.8;;;1.5;;
32451;SDS011;45528;52.102;5.242;2023-08-21T10:14:47;4.5;;;1.4;;
32451;SDS011;45528;52.102;5.242;2023-08-21T10:16:24;5.0;;;1.3;;
32451;SDS011;45528;52.102;5.242;2023-08-21T10:19:55;5.0;;;1.4;;
32451;SDS011;45528;52.102;5.242;2023-08-21T10:21:34;3.4;;;1.3;;
32451;SDS011;45528;52.102;5.242;2023-08-21T10:23:23;5.2;;;1.4;;
32451;SDS011;45528;52.102;5.242;2023-08-21T10:25:01;5.7;;;1.7;;
32451;SDS011;45528;52.102;5.242;2023-08-21T10:26:39;5.4;;;1.3;;
32451;SDS011;45528;52.102;5.242;2023-08-21T10:29:56;5.8;;;1.6;;
32451;SDS011;45528;52.102;5.242;2023-08-21T10:31:34;5.3;;;1.4;;
32451;SDS011;45528;52.102;5.242;2023-08-21T10:33:11;4.5;;;1.8;;
32451;SDS011;45528;52.102;5.242;2023-08-21T10:37:33;6.7;;;1.5;;
32451;SDS011;45528;52.102;5.242;2023-08-21T10:39:12;2.9;;;1.11;;
32451;SDS011;45528;52.102;5.242;2023-08-21T10:42:43;4.1;;;1.2;;
32451;SDS011;45528;52.102;5.242;2023-08-21T10:44:33;4.2;;;1.2;;
32451;SDS011;45528;52.102;5.242;2023-08-21T10:46:34;5.4;;;1.3;;
32451;SDS011;45528;52.102;5.242;2023-08-21T10:48:26;7.6;;;1.3;;
32451;SDS011;45528;52.102;5.242;2023-08-21T10:50:04;5.7;;;1.4;;
32451;SDS011;45528;52.102;5.242;2023-08-21T10:51:42;4.61;;;0.9;;
32451;SDS011;45528;52.102;5.242;2023-08-21T10:55:00;3.6;;;1.11;;
32451;SDS011;45528;52.102;5.242;2023-08-21T10:56:39;5.11;;;1.2;;
32451;SDS011;45528;52.102;5.242;2023-08-21T10:58:16;5.7;;;1.11;;
32451;SDS011;45528;52.102;5.242;2023-08-21T11:01:41;5.11;;;1.2;;
32451;SDS011;45528;52.102;5.242;2023-08-21T11:03:25;4.61;;;1.11;;
32451;SDS011;45528;52.102;5.242;2023-08-21T11:05:02;5.5;;;1.3;;
32451;SDS011;45528;52.102;5.242;2023-08-21T11:06:39;3.9;;;1.0;;
32451;SDS011;45528;52.102;5.242;2023-08-21T11:09:55;4.8;;;0.8;;
32451;SDS011;45528;52.102;5.242;2023-08-21T11:11:34;5.0;;;0.8;;
32451;SDS011;45528;52.102;5.242;2023-08-21T11:13:11;3.7;;;0.8;;
32451;SDS011;45528;52.102;5.242;2023-08-21T11:14:47;2.0;;;0.8;;
32451;SDS011;45528;52.102;5.242;2023-08-21T11:18:01;2.0;;;0.8;;
32451;SDS011;45528;52.102;5.242;2023-08-21T11:19:38;2.7;;;0.7;;
32451;SDS011;45528;52.102;5.242;2023-08-21T11:21:16;3.9;;;0.8;;
32451;SDS011;45528;52.102;5.242;2023-08-21T11:24:40;3.6;;;0.5;;
32451;SDS011;45528;52.102;5.242;2023-08-21T11:26:20;1.11;;;0.5;;
32451;SDS011;45528;52.102;5.242;2023-08-21T11:27:57;0.9;;;0.3;;
32451;SDS011;45528;52.102;5.242;2023-08-21T11:29:36;2.6;;;0.5;;
32451;SDS011;45528;52.102;5.242;2023-08-21T11:33:04;3.2;;;0.8;;
32451;SDS011;45528;52.102;5.242;2023-08-21T11:34:41;2.6;;;0.7;;
32451;SDS011;45528;52.102;5.242;2023-08-21T11:36:18;1.9;;;0.6;;
32451;SDS011;45528;52.102;5.242;2023-08-21T11:37:55;4.3;;;0.8;;
32451;SDS011;45528;52.102;5.242;2023-08-21T11:41:19;2.6;;;0.7;;
32451;SDS011;45528;52.102;5.242;2023-08-21T11:42:59;4.3;;;0.9;;
32451;SDS011;45528;52.102;5.242;2023-08-21T11:44:40;1.5;;;0.6;;
32451;SDS011;45528;52.102;5.242;2023-08-21T11:46:18;2.8;;;1.11;;
32451;SDS011;45528;52.102;5.242;2023-08-21T11:49:32;3.3;;;0.9;;
32451;SDS011;45528;52.102;5.242;2023-08-21T11:51:08;2.1;;;1.0;;
32451;SDS011;45528;52.102;5.242;2023-08-21T11:52:44;2.9;;;0.9;;
32451;SDS011;45528;52.102;5.242;2023-08-21T11:55:56;5.8;;;1.11;;
32451;SDS011;45528;52.102;5.242;2023-08-21T11:57:33;1.6;;;0.8;;
32451;SDS011;45528;52.102;5.242;2023-08-21T11:59:09;3.2;;;0.9;;
32451;SDS011;45528;52.102;5.242;2023-08-21T12:00:45;4.0;;;1.2;;
32451;SDS011;45528;52.102;5.242;2023-08-21T12:04:01;4.3;;;0.9;;
32451;SDS011;45528;52.102;5.242;2023-08-21T12:05:50;6.0;;;1.2;;
32451;SDS011;45528;52.102;5.242;2023-08-21T12:07:26;4.2;;;1.2;;
32451;SDS011;45528;52.102;5.242;2023-08-21T12:10:38;5.6;;;1.11;;
32451;SDS011;45528;52.102;5.242;2023-08-21T12:12:14;2.8;;;1.0;;
32451;SDS011;45528;52.102;5.242;2023-08-21T12:13:52;2.7;;;1.11;;
32451;SDS011;45528;52.102;5.242;2023-08-21T12:15:28;4.61;;;1.0;;
32451;SDS011;45528;52.102;5.242;2023-08-21T12:18:40;4.8;;;1.2;;
32451;SDS011;45528;52.102;5.242;2023-08-21T12:20:17;2.8;;;1.0;;
32451;SDS011;45528;52.102;5.242;2023-08-21T12:21:54;2.7;;;0.8;;
32451;SDS011;45528;52.102;5.242;2023-08-21T12:25:08;2.4;;;0.9;;
32451;SDS011;45528;52.102;5.242;2023-08-21T12:26:45;2.1;;;0.7;;
32451;SDS011;45528;52.102;5.242;2023-08-21T12:28:21;1.4;;;0.7;;
32451;SDS011;45528;52.102;5.242;2023-08-21T12:31:34;1.8;;;0.9;;
32451;SDS011;45528;52.102;5.242;2023-08-21T12:33:10;5.0;;;1.2;;
32451;SDS011;45528;52.102;5.242;2023-08-21T12:34:47;4.1;;;1.0;;
32451;SDS011;45528;52.102;5.242;2023-08-21T12:36:24;3.7;;;1.0;;
32451;SDS011;45528;52.102;5.242;2023-08-21T12:39:36;2.1;;;0.9;;
32451;SDS011;45528;52.102;5.242;2023-08-21T12:41:13;4.91;;;1.2;;
32451;SDS011;45528;52.102;5.242;2023-08-21T12:42:49;3.2;;;1.0;;
32451;SDS011;45528;52.102;5.242;2023-08-21T12:46:03;2.8;;;0.9;;
32451;SDS011;45528;52.102;5.242;2023-08-21T12:47:39;2.6;;;0.8;;
32451;SDS011;45528;52.102;5.242;2023-08-21T12:49:15;2.0;;;0.7;;
32451;SDS011;45528;52.102;5.242;2023-08-21T12:52:28;1.0;;;0.6;;
32451;SDS011;45528;52.102;5.242;2023-08-21T12:54:03;2.9;;;0.8;;
32451;SDS011;45528;52.102;5.242;2023-08-21T12:55:40;1.3;;;0.6;;
32451;SDS011;45528;52.102;5.242;2023-08-21T12:57:16;6.3;;;0.5;;
32451;SDS011;45528;52.102;5.242;2023-08-21T13:00:28;2.1;;;0.5;;